Time,TemperatureF,DewpointF,PressureIn,WindDirection,WindDirectionDegrees,WindSpeedMPH,WindSpeedGustMPH,Humidity,HourlyPrecipIn,Conditions,Clouds,dailyrainin,SolarRadiationWatts/m^2,SoftwareType,DateUTC
2013-05-28 00:02:00,54.9,53.0,30.00,SSE,151,0.0,0.0,94,0.02,,,0.01,0,weatherlink.com 1.10,2013-05-28 07:02:00,
2013-05-28 00:17:00,54.9,53.0,29.99,SSE,151,0.0,0.0,94,0.02,,,0.01,0,weatherlink.com 1.10,2013-05-28 07:17:00,
2013-05-28 00:32:00,54.9,53.0,29.99,SSE,151,0.0,0.0,94,0.02,,,0.02,0,weatherlink.com 1.10,2013-05-28 07:32:00,
2013-05-28 00:47:00,54.9,53.0,29.98,SSE,151,0.0,0.0,94,0.03,,,0.03,0,weatherlink.com 1.10,2013-05-28 07:47:00,
2013-05-28 01:02:00,55.0,53.0,29.99,SSE,151,0.0,0.0,94,0.02,,,0.03,0,weatherlink.com 1.10,2013-05-28 08:02:00,
2013-05-28 01:17:00,55.0,53.0,29.99,SSE,151,0.0,0.0,94,0.02,,,0.03,0,weatherlink.com 1.10,2013-05-28 08:17:00,
2013-05-28 01:32:00,55.1,54.0,29.98,SSE,151,0.0,3.0,94,0.01,,,0.03,0,weatherlink.com 1.10,2013-05-28 08:32:00,
2013-05-28 01:47:00,55.0,53.0,29.97,SSE,151,0.0,2.0,94,0.00,,,0.03,0,weatherlink.com 1.10,2013-05-28 08:47:00,
2013-05-28 02:02:00,55.1,54.0,29.97,SSE,151,0.0,0.0,94,0.00,,,0.03,0,weatherlink.com 1.10,2013-05-28 09:02:00,
2013-05-28 02:17:00,55.1,54.0,29.97,SSE,151,0.0,0.0,94,0.00,,,0.03,0,weatherlink.com 1.10,2013-05-28 09:17:00,
2013-05-28 02:32:00,55.2,54.0,29.99,SSE,151,0.0,0.0,94,0.00,,,0.03,0,weatherlink.com 1.10,2013-05-28 09:32:00,
2013-05-28 02:47:00,55.3,54.0,29.99,SSE,151,0.0,0.0,94,0.00,,,0.03,0,weatherlink.com 1.10,2013-05-28 09:47:00,
2013-05-28 03:02:00,55.3,54.0,29.98,SSE,151,0.0,0.0,94,0.00,,,0.03,0,weatherlink.com 1.10,2013-05-28 10:02:00,
2013-05-28 03:17:00,55.3,54.0,29.96,SSE,159,0.0,3.0,94,0.00,,,0.03,0,weatherlink.com 1.10,2013-05-28 10:17:00,
2013-05-28 03:32:00,54.8,53.0,29.97,SSE,157,0.0,3.0,94,0.00,,,0.03,0,weatherlink.com 1.10,2013-05-28 10:32:00,
2013-05-28 03:47:00,54.8,53.0,29.96,SSE,157,0.0,1.0,94,0.00,,,0.03,0,weatherlink.com 1.10,2013-05-28 10:47:00,
2013-05-28 04:02:00,54.7,53.0,29.97,SSE,157,0.0,0.0,94,0.00,,,0.03,0,weatherlink.com 1.10,2013-05-28 11:02:00,
2013-05-28 04:18:00,54.8,53.0,29.97,SSE,157,0.0,0.0,94,0.00,,,0.03,0,weatherlink.com 1.10,2013-05-28 11:18:00,
2013-05-28 04:33:00,54.8,53.0,29.97,SSE,157,0.0,0.0,94,0.00,,,0.03,0,weatherlink.com 1.10,2013-05-28 11:33:00,
2013-05-28 04:48:00,54.9,54.0,29.96,SSE,157,0.0,0.0,95,0.01,,,0.04,0,weatherlink.com 1.10,2013-05-28 11:48:00,
2013-05-28 05:03:00,55.0,54.0,29.97,SSE,157,0.0,0.0,95,0.01,,,0.04,0,weatherlink.com 1.10,2013-05-28 12:03:00,
2013-05-28 05:18:00,55.1,54.0,29.96,SSE,157,0.0,0.0,95,0.01,,,0.04,0,weatherlink.com 1.10,2013-05-28 12:18:00,
2013-05-28 05:33:00,55.2,54.0,29.97,SSE,157,0.0,1.0,95,0.01,,,0.04,0,weatherlink.com 1.10,2013-05-28 12:33:00,
2013-05-28 05:48:00,55.2,54.0,29.96,SSE,157,0.0,0.0,95,0.00,,,0.04,0,weatherlink.com 1.10,2013-05-28 12:48:00,
2013-05-28 06:03:00,55.3,54.0,29.96,SSE,157,0.0,0.0,95,0.00,,,0.04,0,weatherlink.com 1.10,2013-05-28 13:03:00,
2013-05-28 06:18:00,55.4,54.0,29.96,SSE,156,0.0,0.0,95,0.00,,,0.04,16,weatherlink.com 1.10,2013-05-28 13:18:00,
2013-05-28 06:33:00,55.4,54.0,29.96,SSE,156,0.0,0.0,95,0.00,,,0.04,33,weatherlink.com 1.10,2013-05-28 13:33:00,
2013-05-28 06:48:00,55.5,54.0,29.97,SE,142,0.0,1.0,94,0.00,,,0.04,51,weatherlink.com 1.10,2013-05-28 13:48:00,
2013-05-28 07:03:00,55.8,54.0,29.97,SE,139,0.0,0.0,95,0.00,,,0.04,63,weatherlink.com 1.10,2013-05-28 14:03:00,
2013-05-28 07:18:00,56.0,55.0,29.96,SE,139,0.0,0.0,95,0.00,,,0.04,74,weatherlink.com 1.10,2013-05-28 14:18:00,
2013-05-28 07:33:00,56.2,55.0,29.97,SE,139,0.0,1.0,95,0.00,,,0.04,90,weatherlink.com 1.10,2013-05-28 14:33:00,
2013-05-28 07:48:00,56.1,55.0,29.97,SE,139,0.0,1.0,95,0.00,,,0.04,84,weatherlink.com 1.10,2013-05-28 14:48:00,
2013-05-28 08:03:00,56.5,55.0,29.97,SE,139,0.0,1.0,95,0.00,,,0.04,114,weatherlink.com 1.10,2013-05-28 15:03:00,
2013-05-28 08:18:00,57.1,56.0,29.97,SE,139,0.0,1.0,95,0.00,,,0.04,193,weatherlink.com 1.10,2013-05-28 15:18:00,
2013-05-28 08:33:00,57.8,56.0,29.97,SW,232,0.0,2.0,95,0.00,,,0.04,264,weatherlink.com 1.10,2013-05-28 15:33:00,
2013-05-28 08:48:00,59.2,58.0,29.98,SW,232,0.0,3.0,94,0.00,,,0.04,468,weatherlink.com 1.10,2013-05-28 15:48:00,
2013-05-28 09:03:00,61.0,59.0,29.98,SW,232,0.0,4.0,93,0.00,,,0.04,513,weatherlink.com 1.10,2013-05-28 16:03:00,
2013-05-28 09:18:00,63.5,60.0,29.97,SW,217,4.0,5.0,87,0.00,,,0.04,596,weatherlink.com 1.10,2013-05-28 16:18:00,
2013-05-28 09:33:00,63.1,58.0,29.98,WSW,243,5.0,8.0,83,0.00,,,0.04,403,weatherlink.com 1.10,2013-05-28 16:33:00,
2013-05-28 09:48:00,63.3,58.0,29.98,SW,234,4.0,8.0,82,0.00,,,0.04,705,weatherlink.com 1.10,2013-05-28 16:48:00,
2013-05-28 10:03:00,63.4,58.0,29.98,West,267,1.0,9.0,82,0.00,,,0.04,197,weatherlink.com 1.10,2013-05-28 17:03:00,
2013-05-28 10:18:00,64.5,58.0,29.98,WSW,251,0.0,7.0,80,0.00,,,0.04,621,weatherlink.com 1.10,2013-05-28 17:18:00,
2013-05-28 10:33:00,66.4,59.0,29.98,South,182,0.0,6.0,76,0.00,,,0.04,816,weatherlink.com 1.10,2013-05-28 17:33:00,
2013-05-28 10:48:00,65.1,57.0,29.97,SSW,192,0.0,5.0,76,0.00,,,0.04,207,weatherlink.com 1.10,2013-05-28 17:48:00,
2013-05-28 11:03:00,66.2,58.0,29.97,NNE,28,0.0,5.0,76,0.00,,,0.04,272,weatherlink.com 1.10,2013-05-28 18:03:00,
2013-05-28 11:18:00,69.0,58.0,29.98,West,264,3.0,5.0,69,0.00,,,0.04,1055,weatherlink.com 1.10,2013-05-28 18:18:00,
2013-05-28 11:33:00,69.9,58.0,29.98,North,5,2.0,7.0,67,0.00,,,0.04,1035,weatherlink.com 1.10,2013-05-28 18:33:00,
2013-05-28 11:48:00,70.3,60.0,29.98,West,260,1.0,7.0,69,0.00,,,0.04,1034,weatherlink.com 1.10,2013-05-28 18:48:00,
2013-05-28 12:03:00,68.0,56.0,29.98,NNW,334,0.0,8.0,66,0.00,,,0.04,297,weatherlink.com 1.10,2013-05-28 19:03:00,
2013-05-28 12:19:00,71.2,58.0,29.97,South,175,1.0,6.0,63,0.00,,,0.04,510,weatherlink.com 1.10,2013-05-28 19:19:00,
2013-05-28 12:34:00,68.8,59.0,29.97,South,184,6.0,9.0,71,0.00,,,0.04,1130,weatherlink.com 1.10,2013-05-28 19:34:00,
2013-05-28 12:49:00,70.5,59.0,29.97,SW,216,8.0,11.0,66,0.00,,,0.04,963,weatherlink.com 1.10,2013-05-28 19:49:00,
2013-05-28 13:04:00,70.2,57.0,29.97,WSW,238,5.0,12.0,64,0.00,,,0.04,962,weatherlink.com 1.10,2013-05-28 20:04:00,
2013-05-28 13:19:00,70.4,57.0,29.96,West,265,4.0,12.0,63,0.00,,,0.04,958,weatherlink.com 1.10,2013-05-28 20:19:00,
2013-05-28 13:34:00,71.4,57.0,29.95,South,186,5.0,11.0,61,0.00,,,0.04,983,weatherlink.com 1.10,2013-05-28 20:34:00,
2013-05-28 13:49:00,71.6,57.0,29.95,WSW,256,4.0,10.0,60,0.00,,,0.04,1032,weatherlink.com 1.10,2013-05-28 20:49:00,
2013-05-28 14:04:00,71.3,57.0,29.95,SW,225,3.0,9.0,60,0.00,,,0.04,984,weatherlink.com 1.10,2013-05-28 21:04:00,
2013-05-28 14:19:00,69.8,56.0,29.96,WSW,244,1.0,13.0,62,0.00,,,0.04,918,weatherlink.com 1.10,2013-05-28 21:19:00,
2013-05-28 14:34:00,69.9,56.0,29.96,South,189,5.0,16.0,61,0.00,,,0.04,898,weatherlink.com 1.10,2013-05-28 21:34:00,
2013-05-28 14:49:00,70.1,55.0,29.96,SSW,210,4.0,13.0,60,0.00,,,0.04,875,weatherlink.com 1.10,2013-05-28 21:49:00,
2013-05-28 15:04:00,71.8,57.0,29.95,WSW,241,3.0,7.0,59,0.00,,,0.04,853,weatherlink.com 1.10,2013-05-28 22:04:00,
2013-05-28 15:19:00,71.7,56.0,29.95,SSW,213,5.0,9.0,58,0.00,,,0.04,826,weatherlink.com 1.10,2013-05-28 22:19:00,
2013-05-28 15:34:00,71.8,56.0,29.94,SW,218,7.0,11.0,57,0.00,,,0.04,793,weatherlink.com 1.10,2013-05-28 22:34:00,
2013-05-28 15:49:00,71.0,56.0,29.94,WSW,249,4.0,11.0,59,0.00,,,0.04,761,weatherlink.com 1.10,2013-05-28 22:49:00,
2013-05-28 16:04:00,71.2,55.0,29.94,West,269,6.0,13.0,57,0.00,,,0.04,722,weatherlink.com 1.10,2013-05-28 23:04:00,
2013-05-28 16:19:00,69.8,55.0,29.94,West,272,9.0,13.0,59,0.00,,,0.04,689,weatherlink.com 1.10,2013-05-28 23:19:00,
2013-05-28 16:34:00,69.0,54.0,29.93,WNW,285,5.0,11.0,60,0.00,,,0.04,649,weatherlink.com 1.10,2013-05-28 23:34:00,
2013-05-28 16:49:00,69.1,54.0,29.93,West,279,5.0,11.0,59,0.00,,,0.04,608,weatherlink.com 1.10,2013-05-28 23:49:00,
2013-05-28 17:04:00,69.4,54.0,29.93,WSW,251,3.0,12.0,59,0.00,,,0.04,564,weatherlink.com 1.10,2013-05-29 00:04:00,
2013-05-28 17:19:00,69.2,54.0,29.92,West,271,2.0,11.0,59,0.00,,,0.04,522,weatherlink.com 1.10,2013-05-29 00:19:00,
2013-05-28 17:34:00,70.3,55.0,29.93,WNW,290,5.0,8.0,58,0.00,,,0.04,480,weatherlink.com 1.10,2013-05-29 00:34:00,
2013-05-28 17:49:00,68.1,54.0,29.92,WSW,245,2.0,14.0,60,0.00,,,0.04,434,weatherlink.com 1.10,2013-05-29 00:49:00,
2013-05-28 18:04:00,68.7,55.0,29.92,WNW,296,6.0,9.0,61,0.00,,,0.04,385,weatherlink.com 1.10,2013-05-29 01:04:00,
2013-05-28 18:19:00,68.9,54.0,29.91,West,262,7.0,12.0,59,0.00,,,0.04,339,weatherlink.com 1.10,2013-05-29 01:19:00,
2013-05-28 18:34:00,68.9,54.0,29.91,SSW,211,4.0,11.0,60,0.00,,,0.04,220,weatherlink.com 1.10,2013-05-29 01:34:00,
2013-05-28 18:49:00,66.6,53.0,29.91,West,269,5.0,14.0,62,0.00,,,0.04,105,weatherlink.com 1.10,2013-05-29 01:49:00,
2013-05-28 19:04:00,64.8,53.0,29.91,WNW,294,6.0,13.0,65,0.00,,,0.04,127,weatherlink.com 1.10,2013-05-29 02:04:00,
2013-05-28 19:19:00,65.5,53.0,29.91,West,279,8.0,8.0,65,0.00,,,0.04,153,weatherlink.com 1.10,2013-05-29 02:19:00,
2013-05-28 19:34:00,65.2,53.0,29.91,SSW,213,3.0,3.0,64,0.00,,,0.04,35,weatherlink.com 1.10,2013-05-29 02:34:00,
2013-05-28 19:49:00,64.0,53.0,29.91,WNW,290,0.0,4.0,67,0.00,,,0.04,30,weatherlink.com 1.10,2013-05-29 02:49:00,
2013-05-28 20:04:00,63.0,52.0,29.92,WNW,292,0.0,6.0,68,0.00,,,0.04,21,weatherlink.com 1.10,2013-05-29 03:04:00,
2013-05-28 20:19:00,61.9,51.0,29.92,NW,309,0.0,1.0,68,0.00,,,0.04,0,weatherlink.com 1.10,2013-05-29 03:19:00,
2013-05-28 20:34:00,60.7,51.0,29.93,West,267,0.0,3.0,70,0.00,,,0.04,0,weatherlink.com 1.10,2013-05-29 03:34:00,
2013-05-28 20:49:00,59.9,50.0,29.92,WNW,282,0.0,4.0,71,0.00,,,0.04,0,weatherlink.com 1.10,2013-05-29 03:49:00,
2013-05-28 21:04:00,59.1,50.0,29.91,SW,223,1.0,4.0,73,0.00,,,0.04,0,weatherlink.com 1.10,2013-05-29 04:04:00,
2013-05-28 21:19:00,58.6,51.0,29.90,SSW,196,0.0,3.0,75,0.00,,,0.04,0,weatherlink.com 1.10,2013-05-29 04:19:00,
2013-05-28 21:34:00,58.7,51.0,29.90,SSW,192,0.0,2.0,76,0.00,,,0.04,0,weatherlink.com 1.10,2013-05-29 04:34:00,
2013-05-28 21:49:00,58.0,51.0,29.91,NE,55,0.0,0.0,78,0.00,,,0.04,0,weatherlink.com 1.10,2013-05-29 04:49:00,
2013-05-28 22:04:00,56.9,51.0,29.94,NE,55,0.0,1.0,80,0.00,,,0.04,0,weatherlink.com 1.10,2013-05-29 05:04:00,
2013-05-28 22:19:00,55.8,51.0,29.93,SE,139,0.0,1.0,83,0.00,,,0.04,0,weatherlink.com 1.10,2013-05-29 05:19:00,
2013-05-28 22:34:00,55.8,51.0,29.93,South,184,1.0,6.0,84,0.00,,,0.04,0,weatherlink.com 1.10,2013-05-29 05:34:00,
2013-05-28 22:49:00,55.6,51.0,29.94,NE,47,0.0,4.0,85,0.00,,,0.04,0,weatherlink.com 1.10,2013-05-29 05:49:00,
2013-05-28 23:04:00,54.9,51.0,29.93,ENE,75,0.0,1.0,86,0.00,,,0.04,0,weatherlink.com 1.10,2013-05-29 06:04:00,
2013-05-28 23:19:00,54.5,51.0,29.93,SE,144,0.0,1.0,87,0.00,,,0.04,0,weatherlink.com 1.10,2013-05-29 06:19:00,
2013-05-28 23:34:00,54.7,51.0,29.93,ENE,71,2.0,4.0,87,0.00,,,0.04,0,weatherlink.com 1.10,2013-05-29 06:34:00,
2013-05-28 23:49:00,54.8,51.0,29.93,NE,47,0.0,4.0,88,0.00,,,0.04,0,weatherlink.com 1.10,2013-05-29 06:49:00,